Time;durP1;ratioP1;P1;durP2;ratioP2;P2;SDS_P1;SDS_P2;PMS_P1;PMS_P2;Temp;Humidity;BMP_temperature;BMP_pressure;BME280_temperature;BME280_humidity;BME280_pressure;Samples;Min_cycle;Max_cycle;Signal;HPM_P1;HPM_P2
2023/11/30 00:02:11;;;;;;;3.78;2.67;;;;;;;;;;5066876;28;20109;-66
2023/11/30 00:04:40;;;;;;;6.00;3.80;;;;;;;;;;5060405;28;20644;-66
2023/11/30 00:07:10;;;;;;;4.40;2.90;;;;;;;;;;5060113;28;20127;-66
2023/11/30 00:09:36;;;;;;;5.80;3.35;;;;;;;;;;5058411;28;20029;-66
2023/11/30 00:12:06;;;;;;;5.25;3.20;;;;;;;;;;5056538;28;20315;-67
2023/11/30 00:14:32;;;;;;;7.13;3.65;;;;;;;;;;5058277;28;20388;-66
2023/11/30 00:16:58;;;;;;;4.97;3.38;;;;;;;;;;5063420;28;20029;-66
2023/11/30 00:19:24;;;;;;;4.80;3.45;;;;;;;;;;5062091;28;20090;-66
2023/11/30 00:21:50;;;;;;;3.90;3.30;;;;;;;;;;5065317;28;20043;-66
2023/11/30 00:24:16;;;;;;;5.65;3.33;;;;;;;;;;5063003;28;20032;-66
2023/11/30 00:26:44;;;;;;;5.22;3.58;;;;;;;;;;5060733;28;20024;-66
2023/11/30 00:29:10;;;;;;;4.80;3.50;;;;;;;;;;5063008;28;20108;-66
2023/11/30 00:31:36;;;;;;;6.15;4.63;;;;;;;;;;5053719;28;20203;-66
2023/11/30 00:34:02;;;;;;;5.63;3.72;;;;;;;;;;5059959;28;20020;-66
2023/11/30 00:36:28;;;;;;;6.40;4.18;;;;;;;;;;5059617;28;21575;-66
2023/11/30 00:38:54;;;;;;;7.55;3.63;;;;;;;;;;5068856;28;20082;-66
2023/11/30 00:41:20;;;;;;;6.95;3.90;;;;;;;;;;5059423;28;20451;-66
2023/11/30 00:43:47;;;;;;;4.15;3.25;;;;;;;;;;5055912;28;20486;-67
2023/11/30 00:46:16;;;;;;;5.72;3.70;;;;;;;;;;5060089;28;20031;-66
2023/11/30 00:48:42;;;;;;;6.35;3.08;;;;;;;;;;5056950;28;20025;-66
2023/11/30 00:51:11;;;;;;;2.75;2.28;;;;;;;;;;5055428;28;20271;-66
2023/11/30 00:53:38;;;;;;;1.70;1.60;;;;;;;;;;5061702;28;20477;-66
2023/11/30 00:56:04;;;;;;;2.13;1.88;;;;;;;;;;5061275;28;20021;-66
2023/11/30 00:58:30;;;;;;;4.13;2.20;;;;;;;;;;5063758;28;20047;-66
2023/11/30 01:00:57;;;;;;;6.95;3.00;;;;;;;;;;5058168;28;20461;-67
2023/11/30 01:03:23;;;;;;;5.05;3.50;;;;;;;;;;5070533;28;20592;-66
2023/11/30 01:05:49;;;;;;;4.93;3.50;;;;;;;;;;5081697;28;20132;-66
2023/11/30 01:08:15;;;;;;;9.07;5.00;;;;;;;;;;5056626;28;20017;-66
2023/11/30 01:10:42;;;;;;;6.03;3.75;;;;;;;;;;5056661;28;20549;-66
2023/11/30 01:13:08;;;;;;;6.30;3.83;;;;;;;;;;5061671;28;20016;-66
2023/11/30 01:15:34;;;;;;;6.18;3.58;;;;;;;;;;5060204;28;20028;-67
2023/11/30 01:18:03;;;;;;;3.28;2.88;;;;;;;;;;5067302;28;20093;-67
2023/11/30 01:20:29;;;;;;;3.15;2.80;;;;;;;;;;5059809;28;20123;-66
2023/11/30 01:22:56;;;;;;;4.80;2.83;;;;;;;;;;5053229;28;20019;-66
2023/11/30 01:25:22;;;;;;;3.55;3.10;;;;;;;;;;5059561;28;20045;-66
2023/11/30 01:27:48;;;;;;;5.45;2.47;;;;;;;;;;5057591;28;20036;-66
2023/11/30 01:30:14;;;;;;;4.18;2.33;;;;;;;;;;5058605;28;20028;-66
2023/11/30 01:32:40;;;;;;;5.13;3.30;;;;;;;;;;5059303;28;20020;-66
2023/11/30 01:35:07;;;;;;;3.60;2.72;;;;;;;;;;5057649;28;20031;-67
2023/11/30 01:37:33;;;;;;;3.50;2.58;;;;;;;;;;5061689;28;20098;-66
2023/11/30 01:39:59;;;;;;;3.13;2.10;;;;;;;;;;5059055;28;20032;-66
2023/11/30 01:42:25;;;;;;;4.05;2.17;;;;;;;;;;5061474;28;20032;-66
2023/11/30 01:44:52;;;;;;;1.70;1.60;;;;;;;;;;5061150;28;20559;-67
2023/11/30 01:47:18;;;;;;;4.45;1.77;;;;;;;;;;5056807;28;20504;-66
2023/11/30 01:49:44;;;;;;;2.53;1.88;;;;;;;;;;5060137;28;20039;-67
2023/11/30 01:52:11;;;;;;;2.80;2.60;;;;;;;;;;5077081;28;20062;-66
2023/11/30 01:54:37;;;;;;;2.58;1.92;;;;;;;;;;5064649;28;20020;-67
2023/11/30 01:57:04;;;;;;;2.47;1.88;;;;;;;;;;5059840;28;20444;-67
2023/11/30 01:59:31;;;;;;;2.60;1.55;;;;;;;;;;5075938;28;20380;-68
2023/11/30 02:01:57;;;;;;;3.05;1.83;;;;;;;;;;5073672;28;20032;-65
2023/11/30 02:04:26;;;;;;;3.28;1.65;;;;;;;;;;5054973;28;20523;-67
2023/11/30 02:06:53;;;;;;;1.98;1.60;;;;;;;;;;5062178;28;20044;-67
2023/11/30 02:09:19;;;;;;;1.70;1.60;;;;;;;;;;5057948;28;20029;-68
2023/11/30 02:11:46;;;;;;;1.55;1.45;;;;;;;;;;5056807;28;20044;-67
2023/11/30 02:14:12;;;;;;;2.75;1.80;;;;;;;;;;5059258;28;20212;-67
2023/11/30 02:16:38;;;;;;;2.70;2.05;;;;;;;;;;5063862;28;20021;-66
2023/11/30 02:19:04;;;;;;;1.70;1.60;;;;;;;;;;5067053;28;20032;-66
2023/11/30 02:21:31;;;;;;;1.80;1.70;;;;;;;;;;5061703;28;20035;-67
2023/11/30 02:23:57;;;;;;;4.40;2.00;;;;;;;;;;5055308;28;20505;-67
2023/11/30 02:26:23;;;;;;;4.20;1.80;;;;;;;;;;5070063;28;20036;-66
2023/11/30 02:28:49;;;;;;;8.20;2.20;;;;;;;;;;5077014;28;20468;-66
2023/11/30 02:31:15;;;;;;;3.20;1.70;;;;;;;;;;5061885;28;20385;-66
2023/11/30 02:33:41;;;;;;;1.70;1.60;;;;;;;;;;5064001;28;20103;-66
2023/11/30 02:36:08;;;;;;;1.85;1.63;;;;;;;;;;5065720;28;20025;-66
2023/11/30 02:38:34;;;;;;;1.80;1.70;;;;;;;;;;5070452;28;20028;-67
2023/11/30 02:41:00;;;;;;;1.60;1.50;;;;;;;;;;5057149;28;20032;-66
2023/11/30 02:43:29;;;;;;;1.77;1.60;;;;;;;;;;5055811;28;20039;-67
2023/11/30 02:45:55;;;;;;;2.50;1.60;;;;;;;;;;5057894;28;20575;-67
2023/11/30 02:48:21;;;;;;;1.60;1.50;;;;;;;;;;5061170;28;20111;-67
2023/11/30 02:50:47;;;;;;;3.85;1.90;;;;;;;;;;5058273;28;20048;-66
2023/11/30 02:53:14;;;;;;;6.93;1.85;;;;;;;;;;5067658;28;20443;-67
2023/11/30 02:55:40;;;;;;;1.75;1.60;;;;;;;;;;5063672;28;20020;-67
2023/11/30 02:58:06;;;;;;;1.83;1.60;;;;;;;;;;5073530;28;20107;-67
2023/11/30 03:00:32;;;;;;;2.58;1.60;;;;;;;;;;5063820;28;20028;-67
2023/11/30 03:02:58;;;;;;;2.45;1.60;;;;;;;;;;5067618;28;20078;-67
2023/11/30 03:05:24;;;;;;;2.28;1.50;;;;;;;;;;5066551;28;20055;-67
2023/11/30 03:07:51;;;;;;;4.35;1.95;;;;;;;;;;5066720;28;20036;-67
2023/11/30 03:10:18;;;;;;;1.95;1.77;;;;;;;;;;5081803;28;20062;-67
2023/11/30 03:12:44;;;;;;;1.70;1.60;;;;;;;;;;5067040;28;20024;-67
2023/11/30 03:15:12;;;;;;;1.88;1.75;;;;;;;;;;5066683;28;20364;-67
2023/11/30 03:17:38;;;;;;;1.80;1.67;;;;;;;;;;5068350;28;20080;-67
2023/11/30 03:20:05;;;;;;;2.47;1.73;;;;;;;;;;5055873;28;20419;-66
2023/11/30 03:22:31;;;;;;;1.70;1.60;;;;;;;;;;5059061;28;20053;-66
2023/11/30 03:24:57;;;;;;;1.80;1.55;;;;;;;;;;5061393;28;20068;-66
2023/11/30 03:27:23;;;;;;;1.60;1.50;;;;;;;;;;5064650;28;20040;-67
2023/11/30 03:29:50;;;;;;;4.65;1.85;;;;;;;;;;5064917;28;20044;-67
2023/11/30 03:32:16;;;;;;;2.65;1.65;;;;;;;;;;5064378;28;20487;-67
2023/11/30 03:34:42;;;;;;;2.00;1.83;;;;;;;;;;5065987;28;20039;-67
2023/11/30 03:37:08;;;;;;;3.53;2.15;;;;;;;;;;5065030;28;20028;-66
2023/11/30 03:39:34;;;;;;;1.75;1.65;;;;;;;;;;5066968;28;20032;-67
2023/11/30 03:42:00;;;;;;;1.83;1.73;;;;;;;;;;5066477;28;20419;-67
2023/11/30 03:44:26;;;;;;;2.83;1.80;;;;;;;;;;5064352;28;20119;-67
2023/11/30 03:46:52;;;;;;;9.07;1.50;;;;;;;;;;5059251;28;20047;-66
2023/11/30 03:49:19;;;;;;;1.98;1.80;;;;;;;;;;5061794;28;20033;-67
2023/11/30 03:51:45;;;;;;;2.00;1.77;;;;;;;;;;5059148;28;20031;-67
2023/11/30 03:54:11;;;;;;;3.70;1.90;;;;;;;;;;5067926;28;20032;-67
2023/11/30 03:56:37;;;;;;;3.50;1.90;;;;;;;;;;5061137;28;20037;-67
2023/11/30 03:59:03;;;;;;;2.40;1.83;;;;;;;;;;5066491;28;20107;-67
2023/11/30 04:01:29;;;;;;;4.40;2.10;;;;;;;;;;5065291;28;20513;-67
2023/11/30 04:03:55;;;;;;;1.92;1.83;;;;;;;;;;5064042;28;20020;-66
2023/11/30 04:06:22;;;;;;;2.80;1.55;;;;;;;;;;5056991;28;20111;-67
2023/11/30 04:08:49;;;;;;;1.50;1.40;;;;;;;;;;5066151;28;20024;-67
2023/11/30 04:11:16;;;;;;;1.95;1.65;;;;;;;;;;5059098;28;20514;-66
2023/11/30 04:13:44;;;;;;;2.33;2.00;;;;;;;;;;5062735;28;20535;-67
2023/11/30 04:16:11;;;;;;;3.47;1.67;;;;;;;;;;5065406;28;20028;-67
2023/11/30 04:18:37;;;;;;;9.57;2.40;;;;;;;;;;5064978;28;20024;-67
2023/11/30 04:21:05;;;;;;;2.55;1.90;;;;;;;;;;5057418;28;20385;-67
2023/11/30 04:23:31;;;;;;;3.90;2.30;;;;;;;;;;5064778;28;20472;-66
2023/11/30 04:25:57;;;;;;;2.50;2.10;;;;;;;;;;5056733;28;20337;-67
2023/11/30 04:28:23;;;;;;;2.08;1.85;;;;;;;;;;5057908;28;20029;-67
2023/11/30 04:30:49;;;;;;;4.35;2.13;;;;;;;;;;5062211;28;20514;-67
2023/11/30 04:33:15;;;;;;;1.95;1.80;;;;;;;;;;5060562;28;20044;-68
2023/11/30 04:35:41;;;;;;;1.70;1.60;;;;;;;;;;5065932;28;20358;-66
2023/11/30 04:38:08;;;;;;;1.70;1.60;;;;;;;;;;5064730;28;20440;-67
2023/11/30 04:40:34;;;;;;;1.70;1.60;;;;;;;;;;5056391;28;20032;-66
2023/11/30 04:43:00;;;;;;;1.88;1.77;;;;;;;;;;5061641;28;20527;-67
2023/11/30 04:45:26;;;;;;;1.52;1.42;;;;;;;;;;5058858;28;20548;-67
2023/11/30 04:47:52;;;;;;;1.42;1.38;;;;;;;;;;5054024;28;20040;-67
2023/11/30 04:50:18;;;;;;;1.52;1.48;;;;;;;;;;5062641;28;20456;-66
2023/11/30 04:52:45;;;;;;;1.48;1.38;;;;;;;;;;5062159;28;20096;-66
2023/11/30 04:55:11;;;;;;;3.80;1.75;;;;;;;;;;5065348;28;20024;-66
2023/11/30 04:57:37;;;;;;;1.30;1.30;;;;;;;;;;5063283;28;20035;-66
2023/11/30 05:00:05;;;;;;;1.60;1.50;;;;;;;;;;5063952;28;20054;-67
2023/11/30 05:02:31;;;;;;;1.33;1.33;;;;;;;;;;5059601;28;20024;-67
2023/11/30 05:04:57;;;;;;;3.67;2.03;;;;;;;;;;5068682;28;20033;-66
2023/11/30 05:07:23;;;;;;;2.35;1.60;;;;;;;;;;5060007;28;20037;-66
2023/11/30 05:09:49;;;;;;;1.65;1.50;;;;;;;;;;5061517;28;20037;-67
2023/11/30 05:12:16;;;;;;;1.80;1.70;;;;;;;;;;5060578;28;20052;-66
2023/11/30 05:14:42;;;;;;;4.68;1.52;;;;;;;;;;5060958;28;20087;-66
2023/11/30 05:17:08;;;;;;;3.25;1.50;;;;;;;;;;5062322;28;20456;-66
2023/11/30 05:19:34;;;;;;;1.35;1.30;;;;;;;;;;5058014;28;20032;-66
2023/11/30 05:22:00;;;;;;;1.40;1.40;;;;;;;;;;5063993;28;20064;-66
2023/11/30 05:24:26;;;;;;;1.80;1.70;;;;;;;;;;5059753;28;20044;-65
2023/11/30 05:26:53;;;;;;;1.52;1.50;;;;;;;;;;5061242;28;20506;-66
2023/11/30 05:29:19;;;;;;;1.48;1.42;;;;;;;;;;5080329;28;20033;-65
2023/11/30 05:31:45;;;;;;;1.63;1.40;;;;;;;;;;5057370;28;20366;-66
2023/11/30 05:34:11;;;;;;;1.58;1.33;;;;;;;;;;5069352;28;20522;-66
2023/11/30 05:36:38;;;;;;;1.60;1.50;;;;;;;;;;5062537;28;20534;-65
2023/11/30 05:39:04;;;;;;;1.63;1.52;;;;;;;;;;5065872;28;20028;-64
2023/11/30 05:41:30;;;;;;;1.58;1.48;;;;;;;;;;5061177;28;20025;-65
2023/11/30 05:43:56;;;;;;;1.92;1.60;;;;;;;;;;5077001;28;20052;-69
2023/11/30 05:46:22;;;;;;;2.00;1.80;;;;;;;;;;5077524;28;20025;-65
2023/11/30 05:48:48;;;;;;;1.42;1.30;;;;;;;;;;5057379;28;20028;-65
2023/11/30 05:51:14;;;;;;;1.20;1.20;;;;;;;;;;5060811;28;20044;-66
2023/11/30 05:53:41;;;;;;;1.20;1.20;;;;;;;;;;5058935;28;20025;-65
2023/11/30 05:56:07;;;;;;;1.65;1.55;;;;;;;;;;5060763;28;20024;-66
2023/11/30 05:58:33;;;;;;;1.40;1.40;;;;;;;;;;5058391;28;20455;-67
2023/11/30 06:00:59;;;;;;;1.40;1.40;;;;;;;;;;5056363;28;20425;-66
2023/11/30 06:03:25;;;;;;;1.30;1.30;;;;;;;;;;5051235;28;20039;-65
2023/11/30 06:05:51;;;;;;;1.20;1.20;;;;;;;;;;5054490;28;20477;-65
2023/11/30 06:08:17;;;;;;;1.23;1.20;;;;;;;;;;5064742;28;20389;-66
2023/11/30 06:10:44;;;;;;;2.80;2.15;;;;;;;;;;5056474;28;20052;-66
2023/11/30 06:13:12;;;;;;;5.00;1.80;;;;;;;;;;5061371;28;20187;-66
2023/11/30 06:15:38;;;;;;;2.13;1.63;;;;;;;;;;5069615;28;20444;-67
2023/11/30 06:18:04;;;;;;;1.70;1.60;;;;;;;;;;5059850;28;20032;-66
2023/11/30 06:20:31;;;;;;;10.43;3.80;;;;;;;;;;5059499;28;20028;-68
2023/11/30 06:22:59;;;;;;;1.90;1.80;;;;;;;;;;5063332;28;20391;-66
2023/11/30 06:25:26;;;;;;;1.55;1.50;;;;;;;;;;5061663;28;20493;-66
2023/11/30 06:27:52;;;;;;;3.92;1.80;;;;;;;;;;5058715;28;20051;-66
2023/11/30 06:30:18;;;;;;;1.80;1.67;;;;;;;;;;5062549;28;20040;-66
2023/11/30 06:32:44;;;;;;;2.03;1.80;;;;;;;;;;5057068;28;20032;-68
2023/11/30 06:35:10;;;;;;;1.70;1.60;;;;;;;;;;5057744;28;20024;-66
2023/11/30 06:37:36;;;;;;;2.75;2.20;;;;;;;;;;5061108;28;20021;-66
2023/11/30 06:40:03;;;;;;;2.45;2.25;;;;;;;;;;5056833;28;20239;-67
2023/11/30 06:42:29;;;;;;;6.65;2.00;;;;;;;;;;5058567;28;20035;-67
2023/11/30 06:44:55;;;;;;;1.73;1.63;;;;;;;;;;5056900;28;20083;-67
2023/11/30 06:47:22;;;;;;;7.00;1.92;;;;;;;;;;5056507;28;20031;-67
2023/11/30 06:49:48;;;;;;;5.78;2.17;;;;;;;;;;5049730;28;20451;-67
2023/11/30 06:52:14;;;;;;;1.40;1.30;;;;;;;;;;5072664;28;20028;-67
2023/11/30 06:54:42;;;;;;;1.85;1.75;;;;;;;;;;5074183;28;20115;-67
2023/11/30 06:57:09;;;;;;;3.60;1.98;;;;;;;;;;5057640;28;20433;-67
2023/11/30 06:59:36;;;;;;;6.05;1.75;;;;;;;;;;5061640;28;20063;-67
2023/11/30 07:02:02;;;;;;;2.53;2.08;;;;;;;;;;5053849;28;20032;-67
2023/11/30 07:04:28;;;;;;;1.65;1.55;;;;;;;;;;5055834;28;20056;-67
2023/11/30 07:06:55;;;;;;;2.35;2.00;;;;;;;;;;5062723;28;20032;-67
2023/11/30 07:09:21;;;;;;;3.67;1.92;;;;;;;;;;5062536;28;20405;-67
2023/11/30 07:11:47;;;;;;;2.03;1.60;;;;;;;;;;5057782;28;20105;-67
2023/11/30 07:14:13;;;;;;;2.20;2.00;;;;;;;;;;5063410;28;20033;-67
2023/11/30 07:16:40;;;;;;;2.47;1.77;;;;;;;;;;5057209;28;20488;-67
2023/11/30 07:19:06;;;;;;;5.90;2.00;;;;;;;;;;5070358;28;20067;-67
2023/11/30 07:21:33;;;;;;;2.50;1.88;;;;;;;;;;5050788;28;20048;-68
2023/11/30 07:23:59;;;;;;;2.28;2.10;;;;;;;;;;5053809;28;20223;-67
2023/11/30 07:26:26;;;;;;;2.13;1.70;;;;;;;;;;5057624;28;20125;-67
2023/11/30 07:28:52;;;;;;;1.88;1.70;;;;;;;;;;5074762;28;20028;-67
2023/11/30 07:31:20;;;;;;;5.55;2.45;;;;;;;;;;5059802;28;20040;-67
2023/11/30 07:33:46;;;;;;;3.97;2.13;;;;;;;;;;5067734;28;20464;-67
2023/11/30 07:36:13;;;;;;;4.10;2.10;;;;;;;;;;5057842;28;20036;-67
2023/11/30 07:38:39;;;;;;;8.55;2.50;;;;;;;;;;5055103;28;20086;-66
2023/11/30 07:41:06;;;;;;;2.83;2.05;;;;;;;;;;5056433;28;20495;-67
2023/11/30 07:43:33;;;;;;;2.67;1.92;;;;;;;;;;5056065;28;20029;-67
2023/11/30 07:45:59;;;;;;;4.50;2.08;;;;;;;;;;5065647;28;20099;-67
2023/11/30 07:48:26;;;;;;;1.98;1.77;;;;;;;;;;5063665;28;20112;-67
2023/11/30 07:50:53;;;;;;;3.85;2.00;;;;;;;;;;5063461;28;20082;-67
2023/11/30 07:53:19;;;;;;;2.80;2.03;;;;;;;;;;5064440;28;20433;-67
2023/11/30 07:55:45;;;;;;;3.85;2.40;;;;;;;;;;5062217;28;20028;-67
2023/11/30 07:58:11;;;;;;;3.53;2.67;;;;;;;;;;5058509;28;20077;-66
2023/11/30 08:00:38;;;;;;;1.80;1.70;;;;;;;;;;5061702;28;20105;-67
2023/11/30 08:03:04;;;;;;;3.00;1.80;;;;;;;;;;5051516;28;20040;-68
2023/11/30 08:05:30;;;;;;;5.18;2.38;;;;;;;;;;5054445;28;20596;-69
2023/11/30 08:07:56;;;;;;;3.88;1.90;;;;;;;;;;5062657;28;20047;-67
2023/11/30 08:10:26;;;;;;;4.93;2.03;;;;;;;;;;5075037;28;20039;-69
2023/11/30 08:12:52;;;;;;;2.85;1.80;;;;;;;;;;5064313;28;20553;-69
2023/11/30 08:15:19;;;;;;;2.30;2.10;;;;;;;;;;5058826;28;20505;-68
2023/11/30 08:17:46;;;;;;;5.00;1.77;;;;;;;;;;5052104;28;20063;-68
2023/11/30 08:20:13;;;;;;;2.00;1.80;;;;;;;;;;5050461;28;20278;-67
2023/11/30 08:22:40;;;;;;;4.00;2.45;;;;;;;;;;5052565;28;20056;-68
2023/11/30 08:25:06;;;;;;;2.35;2.15;;;;;;;;;;5053332;28;20054;-68
2023/11/30 08:27:33;;;;;;;7.43;2.65;;;;;;;;;;5049761;28;20033;-68
2023/11/30 08:30:01;;;;;;;2.88;2.10;;;;;;;;;;5058754;28;20030;-66
2023/11/30 08:32:27;;;;;;;2.33;2.00;;;;;;;;;;5055946;28;20024;-68
2023/11/30 08:34:53;;;;;;;2.08;1.90;;;;;;;;;;5057116;28;20044;-68
2023/11/30 08:37:19;;;;;;;8.27;2.38;;;;;;;;;;5074609;28;20024;-68
2023/11/30 08:39:46;;;;;;;1.65;1.55;;;;;;;;;;5059054;28;20035;-68
2023/11/30 08:42:13;;;;;;;3.92;1.95;;;;;;;;;;5057397;28;20452;-66
2023/11/30 08:44:40;;;;;;;2.92;1.83;;;;;;;;;;5061224;28;20699;-64
2023/11/30 08:47:07;;;;;;;3.28;2.25;;;;;;;;;;5064119;28;20466;-66
2023/11/30 08:49:34;;;;;;;2.10;1.90;;;;;;;;;;5063328;28;20038;-65
2023/11/30 08:52:00;;;;;;;4.72;2.30;;;;;;;;;;5056669;28;20532;-65
2023/11/30 08:54:27;;;;;;;2.53;2.10;;;;;;;;;;5061100;28;20040;-65
2023/11/30 08:56:54;;;;;;;2.35;1.95;;;;;;;;;;5057013;28;20055;-65
2023/11/30 08:59:20;;;;;;;4.65;2.35;;;;;;;;;;5049077;28;20037;-66
2023/11/30 09:01:46;;;;;;;2.58;2.35;;;;;;;;;;5050938;28;20116;-69
2023/11/30 09:04:13;;;;;;;6.05;2.28;;;;;;;;;;5054351;28;20039;-67
2023/11/30 09:06:40;;;;;;;2.97;2.78;;;;;;;;;;5055427;28;20035;-65
2023/11/30 09:09:06;;;;;;;4.47;2.75;;;;;;;;;;5052953;28;20090;-66
2023/11/30 09:11:34;;;;;;;2.03;1.83;;;;;;;;;;5057513;28;20024;-64
2023/11/30 09:14:00;;;;;;;2.92;2.70;;;;;;;;;;5059767;28;20052;-65
2023/11/30 09:16:29;;;;;;;2.90;2.03;;;;;;;;;;5054268;28;20102;-67
2023/11/30 09:18:55;;;;;;;4.95;2.03;;;;;;;;;;5058059;28;20405;-66
2023/11/30 09:21:22;;;;;;;1.75;1.63;;;;;;;;;;5073296;28;20113;-67
2023/11/30 09:23:48;;;;;;;4.28;2.22;;;;;;;;;;5069009;28;20046;-66
2023/11/30 09:26:14;;;;;;;2.17;1.90;;;;;;;;;;5057255;28;20666;-67
2023/11/30 09:28:41;;;;;;;4.60;2.95;;;;;;;;;;5061706;28;20025;-67
2023/11/30 09:31:07;;;;;;;3.47;2.17;;;;;;;;;;5058543;28;20032;-67
2023/11/30 09:33:44;;;;;;;6.95;2.38;;;;;;;;;;5060510;28;20459;-66
2023/11/30 09:36:12;;;;;;;3.95;2.72;;;;;;;;;;5074946;28;20033;-66
2023/11/30 09:38:38;;;;;;;3.63;2.67;;;;;;;;;;5059335;28;20028;-66
2023/11/30 09:41:12;;;;;;;3.80;1.92;;;;;;;;;;5069578;28;20511;-65
2023/11/30 09:43:38;;;;;;;2.35;1.83;;;;;;;;;;5054525;28;20052;-64
2023/11/30 09:46:05;;;;;;;4.60;1.85;;;;;;;;;;5056493;28;20468;-64
2023/11/30 09:48:31;;;;;;;6.57;4.22;;;;;;;;;;5057073;28;20454;-64
2023/11/30 09:50:57;;;;;;;2.75;2.03;;;;;;;;;;5060851;28;20447;-64
2023/11/30 09:53:26;;;;;;;2.92;2.05;;;;;;;;;;5055590;28;20021;-64
2023/11/30 09:55:53;;;;;;;2.45;2.25;;;;;;;;;;5058847;28;20615;-64
2023/11/30 09:58:19;;;;;;;11.70;2.42;;;;;;;;;;5057877;28;20048;-64
2023/11/30 10:00:45;;;;;;;3.88;2.17;;;;;;;;;;5065780;28;20381;-64
2023/11/30 10:03:12;;;;;;;8.18;2.45;;;;;;;;;;5058732;28;20456;-63
2023/11/30 10:05:42;;;;;;;3.08;2.55;;;;;;;;;;5058547;28;20035;-64
2023/11/30 10:08:08;;;;;;;2.47;2.28;;;;;;;;;;5059201;28;20041;-64
2023/11/30 10:10:34;;;;;;;2.78;1.90;;;;;;;;;;5075988;28;20211;-65
2023/11/30 10:13:00;;;;;;;4.75;1.98;;;;;;;;;;5059030;28;20485;-69
2023/11/30 10:15:27;;;;;;;7.53;2.60;;;;;;;;;;5060452;28;20098;-64
2023/11/30 10:17:53;;;;;;;3.05;2.75;;;;;;;;;;5055034;28;20067;-64
2023/11/30 10:20:19;;;;;;;1.60;1.50;;;;;;;;;;5062403;28;20475;-64
2023/11/30 10:22:45;;;;;;;4.18;1.73;;;;;;;;;;5057444;28;20033;-64
2023/11/30 10:25:12;;;;;;;1.50;1.50;;;;;;;;;;5057503;28;20335;-65
2023/11/30 10:27:41;;;;;;;3.10;1.70;;;;;;;;;;5051953;28;20094;-65
2023/11/30 10:30:10;;;;;;;1.50;1.40;;;;;;;;;;5057566;28;20037;-66
2023/11/30 10:32:39;;;;;;;1.70;1.60;;;;;;;;;;5056575;28;20032;-67
2023/11/30 10:35:06;;;;;;;1.70;1.60;;;;;;;;;;5076577;28;20562;-66
2023/11/30 10:37:34;;;;;;;1.70;1.60;;;;;;;;;;5052959;28;20458;-65
2023/11/30 10:40:03;;;;;;;1.50;1.40;;;;;;;;;;5052432;28;20524;-65
2023/11/30 10:42:33;;;;;;;1.98;1.45;;;;;;;;;;5076689;28;20467;-65
2023/11/30 10:45:02;;;;;;;1.85;1.65;;;;;;;;;;5058188;28;20118;-67
2023/11/30 10:47:29;;;;;;;1.30;1.30;;;;;;;;;;5068910;28;20032;-70
2023/11/30 10:49:59;;;;;;;3.05;1.42;;;;;;;;;;5068675;28;20032;-66
2023/11/30 10:52:27;;;;;;;2.45;1.70;;;;;;;;;;5054490;28;20020;-66
2023/11/30 10:54:53;;;;;;;2.85;1.80;;;;;;;;;;5053340;28;20420;-66
2023/11/30 10:57:21;;;;;;;1.40;1.30;;;;;;;;;;5055807;28;20775;-66
2023/11/30 10:59:50;;;;;;;3.78;1.52;;;;;;;;;;5049342;28;20040;-64
2023/11/30 11:02:16;;;;;;;4.25;1.85;;;;;;;;;;5064226;28;20036;-65
2023/11/30 11:04:43;;;;;;;2.95;1.52;;;;;;;;;;5054163;28;20037;-65
2023/11/30 11:07:11;;;;;;;2.25;1.65;;;;;;;;;;5057641;28;20051;-65
2023/11/30 11:09:41;;;;;;;1.50;1.40;;;;;;;;;;5056453;28;20059;-64
2023/11/30 11:12:17;;;;;;;1.38;1.38;;;;;;;;;;5056083;28;20039;-64
2023/11/30 11:14:44;;;;;;;3.92;1.48;;;;;;;;;;5058924;28;20357;-65
2023/11/30 11:17:10;;;;;;;1.77;1.48;;;;;;;;;;5071262;28;20951;-65
2023/11/30 11:19:41;;;;;;;3.58;1.55;;;;;;;;;;5055573;28;20176;-64
2023/11/30 11:22:36;;;;;;;2.92;1.20;;;;;;;;;;5062549;28;20418;-65
2023/11/30 11:25:06;;;;;;;1.57;1.47;;;;;;;;;;5046390;28;20068;-65
2023/11/30 11:27:34;;;;;;;2.85;1.50;;;;;;;;;;5059855;28;20762;-65
2023/11/30 11:30:05;;;;;;;1.90;1.80;;;;;;;;;;5070713;28;20056;-68
2023/11/30 11:32:32;;;;;;;1.50;1.40;;;;;;;;;;5076959;28;20031;-64
2023/11/30 11:34:58;;;;;;;2.60;1.40;;;;;;;;;;5057063;28;20024;-65
2023/11/30 11:37:24;;;;;;;1.60;1.50;;;;;;;;;;5055248;28;20029;-66
2023/11/30 11:39:54;;;;;;;1.60;1.50;;;;;;;;;;5061803;28;20048;-65
2023/11/30 11:42:21;;;;;;;1.80;1.70;;;;;;;;;;5068757;28;20101;-66
2023/11/30 11:44:49;;;;;;;1.80;1.70;;;;;;;;;;5057657;28;20195;-65
2023/11/30 11:47:15;;;;;;;2.15;1.58;;;;;;;;;;5073616;28;20028;-68
2023/11/30 11:49:42;;;;;;;2.03;1.88;;;;;;;;;;5058593;28;20119;-67
2023/11/30 11:52:09;;;;;;;2.20;2.00;;;;;;;;;;5056227;28;20035;-67
2023/11/30 11:54:35;;;;;;;2.95;1.75;;;;;;;;;;5058034;28;20028;-64
2023/11/30 11:57:02;;;;;;;1.80;1.70;;;;;;;;;;5054717;28;20020;-64
2023/11/30 11:59:31;;;;;;;2.42;2.22;;;;;;;;;;5057097;28;20028;-64
2023/11/30 12:01:59;;;;;;;1.95;1.67;;;;;;;;;;5069924;28;20381;-64
2023/11/30 12:04:33;;;;;;;1.90;1.70;;;;;;;;;;5070714;28;20035;-67
2023/11/30 12:07:00;;;;;;;2.00;1.80;;;;;;;;;;5063994;28;20039;-67
2023/11/30 12:09:26;;;;;;;1.77;1.67;;;;;;;;;;5065210;28;20024;-67
2023/11/30 12:11:52;;;;;;;2.00;1.50;;;;;;;;;;5051897;28;20021;-66
2023/11/30 12:14:20;;;;;;;1.48;1.38;;;;;;;;;;5057199;28;20085;-66
2023/11/30 12:16:46;;;;;;;1.63;1.45;;;;;;;;;;5058300;28;20401;-65
2023/11/30 12:19:16;;;;;;;2.70;2.10;;;;;;;;;;5066046;28;20058;-66
2023/11/30 12:21:45;;;;;;;1.85;1.67;;;;;;;;;;5061038;28;20024;-71
2023/11/30 12:24:11;;;;;;;3.80;2.13;;;;;;;;;;5059493;28;20114;-67
2023/11/30 12:26:38;;;;;;;3.95;2.15;;;;;;;;;;5060007;28;20344;-65
2023/11/30 12:29:05;;;;;;;4.10;2.40;;;;;;;;;;5055641;28;20488;-67
2023/11/30 12:31:31;;;;;;;2.25;2.10;;;;;;;;;;5078512;28;20047;-65
2023/11/30 12:33:57;;;;;;;6.72;2.70;;;;;;;;;;5061966;28;20029;-67
2023/11/30 12:36:23;;;;;;;4.22;2.13;;;;;;;;;;5052824;28;20036;-70
2023/11/30 12:38:50;;;;;;;3.78;2.25;;;;;;;;;;5050998;28;20033;-69
2023/11/30 12:41:17;;;;;;;8.82;2.45;;;;;;;;;;5055687;28;20361;-69
2023/11/30 12:43:43;;;;;;;4.38;2.72;;;;;;;;;;5051813;28;20037;-65
2023/11/30 12:46:09;;;;;;;4.47;2.00;;;;;;;;;;5069224;28;20059;-66
2023/11/30 12:48:36;;;;;;;3.80;2.13;;;;;;;;;;5063377;28;20569;-68
2023/11/30 12:51:02;;;;;;;7.78;3.15;;;;;;;;;;5064538;28;20038;-69
2023/11/30 12:53:29;;;;;;;4.75;3.20;;;;;;;;;;5061102;28;20016;-66
2023/11/30 12:55:55;;;;;;;5.07;2.20;;;;;;;;;;5060236;28;20503;-64
2023/11/30 12:58:21;;;;;;;4.53;2.20;;;;;;;;;;5063428;28;20025;-65
2023/11/30 13:00:48;;;;;;;10.20;3.45;;;;;;;;;;5061341;28;20400;-67
2023/11/30 13:03:14;;;;;;;4.38;3.30;;;;;;;;;;5061685;28;20036;-68
2023/11/30 13:05:47;;;;;;;3.05;2.40;;;;;;;;;;5068566;28;20044;-68
2023/11/30 13:08:13;;;;;;;5.90;2.47;;;;;;;;;;5058921;28;20080;-67
2023/11/30 13:10:40;;;;;;;3.72;2.72;;;;;;;;;;5070472;28;20043;-66
2023/11/30 13:13:06;;;;;;;8.15;3.40;;;;;;;;;;5060932;28;20463;-67
2023/11/30 13:15:33;;;;;;;4.63;3.33;;;;;;;;;;5073566;28;20096;-67
2023/11/30 13:17:59;;;;;;;6.80;3.28;;;;;;;;;;5071715;28;20799;-66
2023/11/30 13:20:25;;;;;;;4.97;2.90;;;;;;;;;;5054957;28;20035;-67
2023/11/30 13:22:51;;;;;;;4.03;2.67;;;;;;;;;;5055488;28;20032;-68
2023/11/30 13:25:18;;;;;;;2.90;2.60;;;;;;;;;;5056155;28;20043;-67
2023/11/30 13:27:47;;;;;;;4.38;2.50;;;;;;;;;;5054459;28;20052;-67
2023/11/30 13:30:16;;;;;;;3.65;2.35;;;;;;;;;;5054827;28;20147;-66
2023/11/30 13:32:42;;;;;;;2.83;2.22;;;;;;;;;;5050832;28;20622;-66
2023/11/30 13:35:09;;;;;;;2.65;2.08;;;;;;;;;;5054245;28;20825;-66
2023/11/30 13:37:37;;;;;;;2.85;2.10;;;;;;;;;;5051316;28;20032;-66
2023/11/30 13:40:06;;;;;;;3.42;1.90;;;;;;;;;;5064469;28;20139;-66
2023/11/30 13:42:33;;;;;;;1.90;1.70;;;;;;;;;;5065666;28;20163;-66
2023/11/30 13:45:01;;;;;;;1.63;1.52;;;;;;;;;;5049998;28;20040;-65
2023/11/30 13:47:27;;;;;;;3.50;1.90;;;;;;;;;;5050722;28;20470;-64
2023/11/30 13:49:55;;;;;;;2.35;1.77;;;;;;;;;;5054873;28;20043;-65
2023/11/30 13:52:22;;;;;;;2.70;1.90;;;;;;;;;;5056945;28;20039;-65
2023/11/30 13:54:48;;;;;;;2.15;1.85;;;;;;;;;;5072068;28;20496;-67
2023/11/30 13:57:14;;;;;;;1.90;1.63;;;;;;;;;;5073221;28;20028;-65
2023/11/30 13:59:41;;;;;;;2.40;1.83;;;;;;;;;;5059001;28;20032;-65
2023/11/30 14:02:07;;;;;;;1.63;1.52;;;;;;;;;;5064245;28;20036;-64
2023/11/30 14:04:34;;;;;;;2.28;1.98;;;;;;;;;;5066679;28;20029;-65
2023/11/30 14:07:01;;;;;;;2.65;1.90;;;;;;;;;;5068824;28;20024;-66
2023/11/30 14:09:27;;;;;;;3.40;2.10;;;;;;;;;;5053864;28;20024;-65
2023/11/30 14:11:54;;;;;;;3.40;2.20;;;;;;;;;;5053698;28;20075;-66
2023/11/30 14:14:20;;;;;;;2.58;1.90;;;;;;;;;;5068337;28;20096;-65
2023/11/30 14:16:47;;;;;;;5.55;2.50;;;;;;;;;;5054447;28;20487;-66
2023/11/30 14:19:13;;;;;;;3.60;2.17;;;;;;;;;;5061214;28;20474;-67
2023/11/30 14:21:40;;;;;;;2.97;2.13;;;;;;;;;;5064155;28;20823;-69
2023/11/30 14:24:06;;;;;;;3.28;2.05;;;;;;;;;;5067042;28;20389;-68
2023/11/30 14:26:33;;;;;;;3.17;2.10;;;;;;;;;;5059611;28;20549;-68
2023/11/30 14:29:02;;;;;;;2.97;2.20;;;;;;;;;;5071661;28;20032;-67
2023/11/30 14:31:28;;;;;;;3.83;2.40;;;;;;;;;;5057713;28;20032;-66
2023/11/30 14:33:55;;;;;;;5.22;1.90;;;;;;;;;;5062158;28;20032;-68
2023/11/30 14:36:21;;;;;;;3.45;2.15;;;;;;;;;;5056530;28;20020;-67
2023/11/30 14:38:47;;;;;;;2.75;1.77;;;;;;;;;;5053883;28;20028;-67
2023/11/30 14:41:13;;;;;;;3.75;2.15;;;;;;;;;;5055788;28;20118;-66